»·PEaware :: JBU123 KLAX-KJFK

JBU123 :: KLAX-KJFK

FLIGHT INFORMATION

Flight Status: Arrived
Operator:
JetBlue Airways
More flights by this operator :: More flights under this callsign
Pilot: Mitchell L. (19304)
Aircraft: AIRBUS A320
(A320)
More flights by this aircraft type
Origin: KLAX Los Angeles Intl
United States
Destination: KJFK Kennedy Intl
United States
More flights between these airports :: More routes between these airports
Route: OSHNN8 BEALE BAWER LARVE EKR BFF ONL FOD KG75M DAFLU J70 LVZ LENDY6
File this flight plan on PilotEdge
Remarks:
Altitude:
(Current/Filed)
33,000ft
Speed:
(Current/Filed)
475kts
Departed: 11-Sep-18 02:16 PM
Arrived: 11-Sep-18 07:01 PM
Distance/Time
Traveled:
2144nm/4:45
Distance/Time
To Go:
Arrived

Flight Plot

Page will automatically refresh every two minutes.

Flight plan parsing failed; only flown route is shown


Map Options




Map Legend


Flown Route
Filed Route
Departure Airport
Arrival Airport
Navaid (VOR, NDB)
Fix

Horizontal Profiles

Position Reports

Time Latitude Longitude Heading Altitude Ground
Speed
11-Sep-18 13:55 33.941040 -118.405019 85 133ft 0kts
11-Sep-18 13:56 33.941040 -118.405019 85 133ft 0kts
11-Sep-18 13:57 33.941040 -118.405019 85 133ft 0kts
11-Sep-18 13:58 33.941040 -118.405019 85 133ft 0kts
11-Sep-18 13:59 33.941040 -118.405019 85 133ft 0kts
11-Sep-18 14:00 33.941040 -118.405019 85 133ft 0kts
11-Sep-18 14:01 33.941040 -118.405019 85 133ft 0kts
11-Sep-18 14:02 33.941040 -118.405019 85 133ft 0kts
11-Sep-18 14:03 33.941040 -118.405019 85 133ft 0kts
11-Sep-18 14:04 33.941040 -118.405019 85 133ft 0kts
11-Sep-18 14:05 33.941040 -118.405019 85 133ft 0kts
11-Sep-18 14:06 33.941040 -118.405020 85 133ft 0kts
11-Sep-18 14:07 33.941057 -118.405459 120 133ft 2kts
11-Sep-18 14:08 33.941360 -118.405672 174 133ft 0kts
11-Sep-18 14:09 33.941359 -118.405672 174 133ft 0kts
11-Sep-18 14:10 33.941320 -118.405668 174 133ft 0kts
11-Sep-18 14:11 33.940813 -118.405605 172 133ft 2kts
11-Sep-18 14:12 33.939767 -118.405431 173 133ft 7kts
11-Sep-18 14:13 33.939546 -118.400341 83 133ft 25kts
11-Sep-18 14:14 33.940554 -118.389989 87 133ft 32kts
11-Sep-18 14:15 33.940625 -118.381956 87 133ft 20kts
11-Sep-18 14:16 33.940706 -118.380891 91 133ft 0kts
11-Sep-18 14:17 33.939661 -118.381926 261 133ft 24kts
11-Sep-18 14:18 33.936419 -118.415377 262 677ft 160kts
11-Sep-18 14:19 33.923978 -118.469786 230 2069ft 208kts
11-Sep-18 14:20 33.881457 -118.532216 231 4074ft 257kts
11-Sep-18 14:21 33.814954 -118.550667 172 6758ft 284kts
11-Sep-18 14:22 33.736048 -118.530988 170 9373ft 300kts
11-Sep-18 14:23 33.678979 -118.456569 110 10391ft 375kts
11-Sep-18 14:24 33.645486 -118.332824 93 12475ft 405kts
11-Sep-18 14:25 33.651031 -118.199291 66 14044ft 412kts
11-Sep-18 14:26 33.730202 -118.104228 36 16396ft 417kts
11-Sep-18 14:27 33.821165 -118.021403 34 18454ft 430kts
11-Sep-18 14:28 33.916715 -117.935230 35 20259ft 444kts
11-Sep-18 14:29 34.013491 -117.846762 35 21892ft 457kts
11-Sep-18 14:30 34.104981 -117.753678 49 23326ft 471kts
11-Sep-18 14:31 34.187401 -117.632151 49 25471ft 485kts
11-Sep-18 14:32 34.271136 -117.507567 49 27621ft 489kts
11-Sep-18 14:33 34.356305 -117.380361 49 29061ft 487kts
11-Sep-18 14:34 34.440655 -117.253789 50 30380ft 484kts
11-Sep-18 14:35 34.524746 -117.127271 50 31546ft 481kts
11-Sep-18 14:36 34.609031 -117.003274 49 32561ft 479kts
11-Sep-18 14:37 34.693841 -116.879621 49 32828ft 486kts
11-Sep-18 14:38 34.781875 -116.750800 49 32831ft 505kts
11-Sep-18 14:39 34.872462 -116.619947 45 32834ft 501kts
11-Sep-18 14:40 34.966541 -116.494559 46 32839ft 504kts
11-Sep-18 14:41 35.060085 -116.369079 46 32891ft 504kts
11-Sep-18 14:42 35.151316 -116.246296 46 32876ft 504kts
11-Sep-18 14:43 35.244480 -116.120429 46 32878ft 503kts
11-Sep-18 14:44 35.338276 -115.993227 46 32881ft 505kts
11-Sep-18 14:45 35.431860 -115.865840 46 32882ft 505kts
11-Sep-18 14:46 35.525053 -115.738507 46 32880ft 505kts
11-Sep-18 14:47 35.618248 -115.610690 46 32870ft 504kts
11-Sep-18 14:48 35.711500 -115.482297 46 32865ft 504kts
11-Sep-18 14:49 35.803658 -115.354907 46 32863ft 507kts
11-Sep-18 14:50 35.893595 -115.229996 47 32862ft 506kts
11-Sep-18 14:51 35.986536 -115.100544 47 32863ft 506kts
11-Sep-18 14:52 36.079530 -114.970527 47 32787ft 508kts
11-Sep-18 14:53 36.170185 -114.843447 47 32804ft 507kts
11-Sep-18 14:54 36.254881 -114.703653 52 32805ft 507kts
11-Sep-18 14:55 36.338191 -114.562195 52 32803ft 509kts
11-Sep-18 14:56 36.421187 -114.420654 52 32801ft 510kts
11-Sep-18 14:57 36.503429 -114.279696 52 32798ft 510kts
11-Sep-18 14:58 36.585975 -114.137726 52 32904ft 508kts
11-Sep-18 14:59 36.668626 -113.995001 52 32897ft 508kts
11-Sep-18 15:00 36.750921 -113.852291 52 32892ft 509kts
11-Sep-18 15:01 36.833890 -113.707795 52 32891ft 512kts
11-Sep-18 15:02 36.916318 -113.563633 52 32891ft 513kts
11-Sep-18 15:03 36.998035 -113.420101 52 32892ft 512kts
11-Sep-18 15:04 37.079748 -113.275846 53 32890ft 512kts
11-Sep-18 15:05 37.160683 -113.132660 53 33055ft 512kts
11-Sep-18 15:06 37.241868 -112.988235 53 33062ft 510kts
11-Sep-18 15:07 37.323778 -112.841872 52 33059ft 515kts
11-Sep-18 15:08 37.405609 -112.695005 52 33050ft 513kts
11-Sep-18 15:09 37.487097 -112.548113 52 33211ft 514kts
11-Sep-18 15:10 37.568504 -112.400711 52 33200ft 512kts
11-Sep-18 15:11 37.648679 -112.257035 49 33195ft 512kts
11-Sep-18 15:12 37.736526 -112.117238 49 33191ft 512kts
11-Sep-18 15:13 37.824886 -111.975219 49 33191ft 518kts
11-Sep-18 15:14 37.913342 -111.832436 49 33194ft 516kts
11-Sep-18 15:15 38.001514 -111.689481 49 33195ft 514kts
11-Sep-18 15:16 38.088799 -111.547357 49 33195ft 515kts
11-Sep-18 15:17 38.174631 -111.407197 49 33125ft 516kts
11-Sep-18 15:18 38.260670 -111.265759 49 32942ft 514kts
11-Sep-18 15:19 38.348105 -111.121510 49 32942ft 519kts
11-Sep-18 15:20 38.435278 -110.977075 49 32939ft 520kts
11-Sep-18 15:21 38.522680 -110.831604 49 32938ft 519kts
11-Sep-18 15:22 38.610266 -110.685163 49 32938ft 518kts
11-Sep-18 15:23 38.697389 -110.538848 49 32938ft 519kts
11-Sep-18 15:24 38.784315 -110.392185 49 32940ft 521kts
11-Sep-18 15:25 38.870505 -110.246000 49 32939ft 521kts
11-Sep-18 15:26 38.957267 -110.098274 49 32938ft 521kts
11-Sep-18 15:27 39.043739 -109.950364 49 32938ft 521kts
11-Sep-18 15:28 39.122334 -109.800271 52 32939ft 522kts
11-Sep-18 15:29 39.200344 -109.649710 52 32938ft 521kts
11-Sep-18 15:30 39.279366 -109.496354 52 32940ft 524kts
11-Sep-18 15:31 39.358916 -109.341246 53 32940ft 523kts
11-Sep-18 15:32 39.437363 -109.187370 53 32951ft 521kts
11-Sep-18 15:33 39.516210 -109.032138 52 32955ft 522kts
11-Sep-18 15:34 39.594300 -108.877640 53 32954ft 522kts
11-Sep-18 15:35 39.673227 -108.720693 52 32958ft 521kts
11-Sep-18 15:36 39.751586 -108.564118 52 32960ft 521kts
11-Sep-18 15:37 39.828779 -108.409120 53 32958ft 521kts
11-Sep-18 15:38 39.902645 -108.259944 53 33062ft 522kts
11-Sep-18 15:39 39.980468 -108.102124 53 33064ft 519kts
11-Sep-18 15:40 40.057472 -107.945187 53 33067ft 519kts
11-Sep-18 15:41 40.128121 -107.787511 56 33066ft 521kts
11-Sep-18 15:42 40.198906 -107.626328 56 33064ft 518kts
11-Sep-18 15:43 40.270300 -107.462892 56 33038ft 517kts
11-Sep-18 15:44 40.338863 -107.304978 57 33075ft 517kts
11-Sep-18 15:45 40.408084 -107.144737 57 33071ft 515kts
11-Sep-18 15:46 40.478286 -106.981446 57 33076ft 516kts
11-Sep-18 15:47 40.547789 -106.818904 57 33081ft 516kts
11-Sep-18 15:48 40.617089 -106.655969 57 33084ft 515kts
11-Sep-18 15:49 40.686976 -106.490760 57 33219ft 515kts
11-Sep-18 15:50 40.755789 -106.327197 58 33264ft 514kts
11-Sep-18 15:51 40.822593 -106.167450 59 33271ft 511kts
11-Sep-18 15:52 40.891024 -106.003023 59 33264ft 511kts
11-Sep-18 15:53 40.950778 -105.858717 59 33267ft 511kts
11-Sep-18 15:54 41.014291 -105.704571 59 33115ft 510kts
11-Sep-18 15:55 41.082006 -105.539322 59 33106ft 512kts
11-Sep-18 15:56 41.132772 -105.415143 59 33111ft 512kts
11-Sep-18 15:57 41.199471 -105.250726 60 33110ft 512kts
11-Sep-18 15:58 41.265626 -105.086835 60 33067ft 511kts
11-Sep-18 15:59 41.332320 -104.920642 60 33059ft 511kts
11-Sep-18 16:00 41.398408 -104.755058 60 33066ft 511kts
11-Sep-18 16:01 41.464524 -104.588496 60 33057ft 508kts
11-Sep-18 16:02 41.530230 -104.421996 60 33026ft 509kts
11-Sep-18 16:03 41.594972 -104.256824 60 33055ft 510kts
11-Sep-18 16:04 41.660380 -104.089205 60 33027ft 508kts
11-Sep-18 16:05 41.725244 -103.921988 60 32924ft 508kts
11-Sep-18 16:06 41.790187 -103.753658 61 32926ft 511kts
11-Sep-18 16:07 41.843991 -103.613366 60 32915ft 509kts
11-Sep-18 16:08 41.903814 -103.408204 77 32922ft 513kts
11-Sep-18 16:09 41.924784 -103.264590 78 32923ft 512kts
11-Sep-18 16:10 41.951980 -103.068845 78 32891ft 505kts
11-Sep-18 16:11 41.981859 -102.852132 79 32908ft 505kts
11-Sep-18 16:12 42.002825 -102.697527 78 32897ft 504kts
11-Sep-18 16:13 42.027361 -102.514623 79 32904ft 502kts
11-Sep-18 16:14 42.051527 -102.332183 79 32901ft 500kts
11-Sep-18 16:15 42.075323 -102.150022 79 32900ft 503kts
11-Sep-18 16:16 42.099153 -101.965381 79 32904ft 502kts
11-Sep-18 16:17 42.111387 -101.870651 79 32902ft 501kts
11-Sep-18 16:18 42.143568 -101.615696 79 32926ft 502kts
11-Sep-18 16:19 42.151945 -101.548532 79 32922ft 502kts
11-Sep-18 16:20 42.185437 -101.276449 80 32925ft 502kts
11-Sep-18 16:21 42.207946 -101.090396 80 32928ft 502kts
11-Sep-18 16:22 42.229938 -100.906099 80 32930ft 502kts
11-Sep-18 16:23 42.250463 -100.731774 80 32923ft 503kts
11-Sep-18 16:24 42.272150 -100.544905 80 32930ft 505kts
11-Sep-18 16:25 42.293148 -100.361246 80 32931ft 506kts
11-Sep-18 16:26 42.313111 -100.184026 81 32895ft 506kts
11-Sep-18 16:27 42.333729 -99.998435 81 32901ft 506kts
11-Sep-18 16:28 42.354207 -99.811202 81 32903ft 506kts
11-Sep-18 16:29 42.374335 -99.624306 81 32903ft 505kts
11-Sep-18 16:30 42.394290 -99.436065 81 32904ft 505kts
11-Sep-18 16:31 42.413639 -99.250426 82 32923ft 506kts
11-Sep-18 16:32 42.432632 -99.065356 82 32917ft 504kts
11-Sep-18 16:33 42.451769 -98.875774 82 32917ft 504kts
11-Sep-18 16:34 42.470208 -98.688389 83 32918ft 504kts
11-Sep-18 16:35 42.479963 -98.499115 85 32918ft 504kts
11-Sep-18 16:36 42.488997 -98.314032 86 32918ft 504kts
11-Sep-18 16:37 42.497756 -98.128050 86 32919ft 504kts
11-Sep-18 16:38 42.506366 -97.938785 86 32919ft 504kts
11-Sep-18 16:39 42.514652 -97.749760 86 32919ft 504kts
11-Sep-18 16:40 42.522558 -97.562341 86 32919ft 504kts
11-Sep-18 16:41 42.530116 -97.375980 86 32988ft 504kts
11-Sep-18 16:42 42.537441 -97.187605 87 32979ft 503kts
11-Sep-18 16:43 42.544467 -96.999043 87 32975ft 504kts
11-Sep-18 16:44 42.551216 -96.809551 87 32974ft 504kts
11-Sep-18 16:45 42.557633 -96.620582 87 32973ft 503kts
11-Sep-18 16:46 42.563730 -96.431890 87 32974ft 503kts
11-Sep-18 16:47 42.569405 -96.246820 87 32946ft 503kts
11-Sep-18 16:48 42.574893 -96.057876 87 32953ft 503kts
11-Sep-18 16:49 42.580071 -95.868928 87 32956ft 503kts
11-Sep-18 16:50 42.584892 -95.681733 87 32995ft 503kts
11-Sep-18 16:51 42.589469 -95.492670 87 32997ft 503kts
11-Sep-18 16:52 42.593625 -95.306467 88 33008ft 503kts
11-Sep-18 16:53 42.597643 -95.115497 88 33013ft 502kts
11-Sep-18 16:54 42.601258 -94.926192 88 33019ft 502kts
11-Sep-18 16:55 42.604580 -94.737070 88 33021ft 502kts
11-Sep-18 16:56 42.607563 -94.548310 88 33045ft 501kts
11-Sep-18 16:57 42.610245 -94.359869 88 33040ft 501kts
11-Sep-18 16:58 42.612191 -94.175063 88 33038ft 499kts
11-Sep-18 16:59 42.613671 -93.987255 89 33034ft 500kts
11-Sep-18 17:00 42.614828 -93.800341 88 33044ft 500kts
11-Sep-18 17:01 42.615727 -93.612848 88 33054ft 496kts
11-Sep-18 17:02 42.616291 -93.425356 88 33064ft 497kts
11-Sep-18 17:03 42.616550 -93.238521 89 33066ft 497kts
11-Sep-18 17:04 42.616484 -93.051427 89 33066ft 496kts
11-Sep-18 17:05 42.616143 -92.864990 89 33064ft 495kts
11-Sep-18 17:06 42.615523 -92.678274 89 33080ft 494kts
11-Sep-18 17:07 42.614520 -92.491921 88 33074ft 494kts
11-Sep-18 17:08 42.613259 -92.306523 90 33068ft 494kts
11-Sep-18 17:09 42.611744 -92.120299 90 33093ft 495kts
11-Sep-18 17:10 42.609876 -91.933683 90 33109ft 495kts
11-Sep-18 17:11 42.607656 -91.748081 90 33111ft 495kts
11-Sep-18 17:12 42.605233 -91.561153 90 33112ft 497kts
11-Sep-18 17:13 42.602404 -91.374504 90 33116ft 496kts
11-Sep-18 17:14 42.599392 -91.187895 91 33117ft 500kts
11-Sep-18 17:15 42.595949 -90.999333 92 33133ft 498kts
11-Sep-18 17:16 42.592309 -90.812106 92 33128ft 498kts
11-Sep-18 17:17 42.588262 -90.623808 92 33142ft 501kts
11-Sep-18 17:18 42.583914 -90.435104 92 33139ft 500kts
11-Sep-18 17:19 42.579300 -90.247312 93 33137ft 500kts
11-Sep-18 17:20 42.574317 -90.058376 93 33137ft 502kts
11-Sep-18 17:21 42.569061 -89.869827 93 33204ft 503kts
11-Sep-18 17:22 42.563526 -89.682462 93 33210ft 503kts
11-Sep-18 17:23 42.557709 -89.496033 93 33214ft 502kts
11-Sep-18 17:24 42.551482 -89.307383 94 33162ft 503kts
11-Sep-18 17:25 42.544972 -89.118344 94 33144ft 503kts
11-Sep-18 17:26 42.538145 -88.929545 94 33139ft 503kts
11-Sep-18 17:27 42.530995 -88.740419 94 33138ft 503kts
11-Sep-18 17:28 42.523524 -88.551114 94 33165ft 504kts
11-Sep-18 17:29 42.515750 -88.362027 94 33164ft 503kts
11-Sep-18 17:30 42.507809 -88.176104 95 33164ft 504kts
11-Sep-18 17:31 42.499763 -87.987612 92 33176ft 504kts
11-Sep-18 17:32 42.499867 -87.797966 91 33167ft 505kts
11-Sep-18 17:33 42.499412 -87.608023 91 33167ft 505kts
11-Sep-18 17:34 42.498651 -87.419084 91 33167ft 505kts
11-Sep-18 17:35 42.497580 -87.229692 92 33166ft 504kts
11-Sep-18 17:36 42.496193 -87.040023 92 33166ft 505kts
11-Sep-18 17:37 42.494495 -86.850649 92 33219ft 504kts
11-Sep-18 17:38 42.492473 -86.660249 92 33215ft 504kts
11-Sep-18 17:39 42.490146 -86.470544 92 33213ft 504kts
11-Sep-18 17:40 42.487519 -86.281532 92 33212ft 504kts
11-Sep-18 17:41 42.484569 -86.092017 92 33211ft 503kts
11-Sep-18 17:42 42.481315 -85.902916 92 33212ft 503kts
11-Sep-18 17:43 42.477748 -85.713798 92 33217ft 503kts
11-Sep-18 17:44 42.473874 -85.524807 92 33230ft 503kts
11-Sep-18 17:45 42.469691 -85.335906 93 33228ft 503kts
11-Sep-18 17:46 42.465229 -85.148161 93 33230ft 502kts
11-Sep-18 17:47 42.460438 -84.959753 93 33230ft 502kts
11-Sep-18 17:48 42.455319 -84.770634 93 33230ft 502kts
11-Sep-18 17:49 42.449899 -84.581933 93 33234ft 502kts
11-Sep-18 17:50 42.444187 -84.393772 93 33231ft 502kts
11-Sep-18 17:51 42.438177 -84.205577 93 33246ft 502kts
11-Sep-18 17:52 42.431840 -84.017239 94 33238ft 502kts
11-Sep-18 17:53 42.425186 -83.828931 94 33232ft 502kts
11-Sep-18 17:54 42.418219 -83.640312 93 33227ft 502kts
11-Sep-18 17:55 42.410968 -83.452500 93 33237ft 502kts
11-Sep-18 17:56 42.403534 -83.267366 94 33232ft 502kts
11-Sep-18 17:57 42.395771 -83.081338 94 33230ft 502kts
11-Sep-18 17:58 42.387604 -82.893989 94 33231ft 502kts
11-Sep-18 17:59 42.379194 -82.706916 94 33198ft 503kts
11-Sep-18 18:00 42.371941 -82.518218 93 33205ft 502kts
11-Sep-18 18:01 42.364431 -82.330794 94 33247ft 502kts
11-Sep-18 18:02 42.356614 -82.142803 94 33243ft 501kts
11-Sep-18 18:03 42.347080 -81.923230 94 33237ft 502kts
11-Sep-18 18:04 42.340044 -81.767093 94 33241ft 501kts
11-Sep-18 18:05 42.331287 -81.579613 94 33240ft 500kts
11-Sep-18 18:06 42.322348 -81.392629 94 33240ft 501kts
11-Sep-18 18:07 42.313173 -81.207232 95 33287ft 499kts
11-Sep-18 18:08 42.303624 -81.020353 95 33275ft 500kts
11-Sep-18 18:09 42.294281 -80.843159 95 33270ft 500kts
11-Sep-18 18:10 42.284163 -80.657404 95 33258ft 499kts
11-Sep-18 18:11 42.273725 -80.471870 94 33257ft 500kts
11-Sep-18 18:12 42.262980 -80.286029 95 33258ft 499kts
11-Sep-18 18:13 42.251868 -80.099510 95 33255ft 500kts
11-Sep-18 18:14 42.240459 -79.912862 96 33264ft 509kts
11-Sep-18 18:15 42.229032 -79.730766 96 33263ft 507kts
11-Sep-18 18:16 42.216697 -79.539491 96 33282ft 512kts
11-Sep-18 18:17 42.204171 -79.349887 97 33287ft 512kts
11-Sep-18 18:18 42.191366 -79.160885 98 33287ft 517kts
11-Sep-18 18:19 42.152961 -78.978308 111 33286ft 510kts
11-Sep-18 18:20 42.115328 -78.827847 111 33288ft 511kts
11-Sep-18 18:21 42.064277 -78.625633 112 33310ft 514kts
11-Sep-18 18:22 42.018077 -78.444136 112 33289ft 513kts
11-Sep-18 18:23 41.981316 -78.300581 112 33297ft 512kts
11-Sep-18 18:24 41.934765 -78.120149 113 33300ft 514kts
11-Sep-18 18:25 41.880706 -77.912711 113 33306ft 514kts
11-Sep-18 18:26 41.842389 -77.766597 113 33287ft 513kts
11-Sep-18 18:27 41.794841 -77.586406 113 33289ft 513kts
11-Sep-18 18:28 41.747461 -77.408136 113 33290ft 513kts
11-Sep-18 18:29 41.701105 -77.234799 113 33283ft 514kts
11-Sep-18 18:30 41.652975 -77.056300 114 33284ft 513kts
11-Sep-18 18:31 41.604331 -76.877236 113 33224ft 513kts
11-Sep-18 18:32 41.562287 -76.723492 113 33235ft 513kts
11-Sep-18 18:33 41.513831 -76.547468 113 33239ft 512kts
11-Sep-18 18:34 41.464541 -76.369632 114 33240ft 512kts
11-Sep-18 18:35 41.418259 -76.203640 114 33246ft 511kts
11-Sep-18 18:36 41.368785 -76.027587 114 33253ft 511kts
11-Sep-18 18:37 41.318750 -75.850728 114 33252ft 511kts
11-Sep-18 18:38 41.269922 -75.680188 117 33153ft 481kts
11-Sep-18 18:39 41.215790 -75.518683 117 30663ft 489kts
11-Sep-18 18:40 41.162296 -75.359196 116 27989ft 467kts
11-Sep-18 18:41 41.103987 -75.186391 116 25078ft 441kts
11-Sep-18 18:42 41.063330 -75.066570 116 23059ft 422kts
11-Sep-18 18:43 41.016468 -74.929128 116 20717ft 401kts
11-Sep-18 18:44 40.987954 -74.791685 100 18509ft 383kts
11-Sep-18 18:45 40.972687 -74.655144 100 16221ft 368kts
11-Sep-18 18:46 40.958160 -74.523524 100 14127ft 357kts
11-Sep-18 18:47 40.943982 -74.396243 100 12133ft 346kts
11-Sep-18 18:48 40.930540 -74.276437 101 10371ft 334kts
11-Sep-18 18:49 40.917903 -74.161696 101 9393ft 301kts
11-Sep-18 18:50 40.883807 -74.072810 125 8152ft 289kts
11-Sep-18 18:51 40.841075 -73.985213 125 6852ft 284kts
11-Sep-18 18:52 40.798303 -73.898355 124 5570ft 283kts
11-Sep-18 18:53 40.788514 -73.803450 90 4324ft 258kts
11-Sep-18 18:54 40.792667 -73.715741 87 3366ft 223kts
11-Sep-18 18:55 40.799718 -73.639701 55 2922ft 196kts
11-Sep-18 18:56 40.832211 -73.665482 260 2746ft 195kts
11-Sep-18 18:57 40.802106 -73.691226 157 1842ft 181kts
11-Sep-18 18:58 40.754169 -73.687415 191 1780ft 174kts
11-Sep-18 18:59 40.713339 -73.700631 217 1599ft 158kts
11-Sep-18 19:00 40.677257 -73.729786 208 781ft 148kts
11-Sep-18 19:01 40.643252 -73.756415 209 26ft 132kts
11-Sep-18 19:02 40.625397 -73.772023 292 21ft 50kts
11-Sep-18 19:03 40.629690 -73.772068 31 21ft 7kts
11-Sep-18 19:04 40.632326 -73.776282 303 21ft 34kts
11-Sep-18 19:05 40.633917 -73.779791 300 21ft 0kts

Navigation Log

Ident Type
Flight plan parsing failed, navigation log unavailable